Time;durP1;ratioP1;P1;durP2;ratioP2;P2;SDS_P1;SDS_P2;PMS_P1;PMS_P2;Temp;Humidity;BMP_temperature;BMP_pressure;BME280_temperature;BME280_humidity;BME280_pressure;Samples;Min_cycle;Max_cycle;Signal;HPM_P1;HPM_P2
2022/05/06 00:00:10;;;;;;;8.80;4.60;;;11.70;99.90;;;11.86;76.27;101787.84;5175862;28;20050;-82
2022/05/06 00:02:44;;;;;;;9.45;4.30;;;11.70;99.90;;;11.86;76.49;101795.66;5181385;28;20051;-82
2022/05/06 00:05:16;;;;;;;8.88;5.03;;;11.70;99.90;;;11.82;76.73;101792.03;5170660;28;20046;-82
2022/05/06 00:07:48;;;;;;;6.95;4.47;;;11.70;99.90;;;11.80;76.67;101788.44;5166976;28;20042;-82
2022/05/06 00:10:20;;;;;;;7.57;4.68;;;11.70;99.90;;;11.77;76.71;101790.00;5168481;28;20057;-83
2022/05/06 00:12:52;;;;;;;9.40;5.30;;;11.70;99.90;;;11.80;76.64;101796.28;5161038;28;20061;-83
2022/05/06 00:15:23;;;;;;;7.72;4.25;;;11.70;99.90;;;11.83;76.63;101792.94;5159242;28;20118;-80
2022/05/06 00:17:57;;;;;;;8.70;4.68;;;11.70;99.90;;;11.83;76.49;101795.56;5187954;28;20052;-82
2022/05/06 00:20:29;;;;;;;7.60;4.43;;;11.70;99.90;;;11.81;76.54;101797.22;5184738;28;20054;-82
2022/05/06 00:23:01;;;;;;;8.13;4.65;;;11.70;99.90;;;11.79;76.36;101804.03;5196710;28;20052;-82
2022/05/06 00:25:33;;;;;;;8.82;4.25;;;11.70;99.90;;;11.78;76.12;101802.25;5175767;28;20050;-82
2022/05/06 00:28:05;;;;;;;9.43;4.43;;;11.60;99.90;;;11.76;75.77;101803.91;5155806;28;20047;-82
2022/05/06 00:30:37;;;;;;;11.00;4.05;;;11.60;99.90;;;11.76;75.49;101799.56;5158150;28;20055;-80
2022/05/06 00:33:10;;;;;;;9.80;4.43;;;11.60;99.90;;;11.77;75.04;101803.06;5156383;28;20057;-83
2022/05/06 00:35:42;;;;;;;7.45;4.20;;;11.60;99.90;;;11.76;74.92;101798.69;5156638;28;20134;-83
2022/05/06 00:38:14;;;;;;;11.50;5.07;;;11.60;99.90;;;11.72;74.78;101796.72;5157412;28;20081;-83
2022/05/06 00:40:46;;;;;;;8.30;4.45;;;11.60;99.90;;;11.68;75.28;101795.72;5157106;28;20094;-81
2022/05/06 00:43:19;;;;;;;9.13;4.72;;;11.60;99.90;;;11.66;75.25;101798.22;5157524;28;20047;-82
2022/05/06 00:45:53;;;;;;;7.72;4.15;;;11.50;99.90;;;11.63;75.21;101797.22;5182391;28;20046;-82
2022/05/06 00:48:28;;;;;;;9.48;4.60;;;11.50;99.90;;;11.64;75.08;101810.34;5196835;28;20476;-82
2022/05/06 00:51:02;;;;;;;8.38;4.10;;;11.50;99.90;;;11.59;75.16;101792.66;5197733;28;20050;-83
2022/05/06 00:53:35;;;;;;;8.60;4.15;;;11.50;99.90;;;11.53;75.37;101811.53;5198292;28;20046;-83
2022/05/06 00:56:11;;;;;;;6.43;4.00;;;11.40;99.90;;;11.45;75.56;101805.06;5197059;28;20058;-83
2022/05/06 00:58:44;;;;;;;8.88;4.32;;;11.40;99.90;;;11.38;76.00;101808.22;5198687;28;20420;-83
2022/05/06 01:01:16;;;;;;;7.30;3.80;;;11.30;99.90;;;11.32;76.08;101805.31;5197325;28;20076;-83
2022/05/06 01:03:50;;;;;;;9.02;4.25;;;11.20;99.90;;;11.25;76.42;101816.28;5200207;28;20050;-83
2022/05/06 01:06:23;;;;;;;7.80;4.45;;;11.10;99.90;;;11.21;76.91;101812.63;5197795;28;20145;-83
2022/05/06 01:08:55;;;;;;;7.50;4.50;;;11.10;99.90;;;11.20;76.81;101813.44;5199029;28;20053;-82
2022/05/06 01:11:28;;;;;;;7.43;4.45;;;11.10;99.90;;;11.19;77.03;101813.38;5199518;28;20056;-83
2022/05/06 01:14:00;;;;;;;8.63;4.32;;;11.10;99.90;;;11.13;77.04;101812.25;5198931;28;20046;-82
2022/05/06 01:16:35;;;;;;;6.97;4.30;;;11.00;99.90;;;11.07;76.79;101811.94;5199259;28;20046;-83
2022/05/06 01:19:10;;;;;;;6.60;3.83;;;11.00;99.90;;;11.01;77.25;101803.81;5201161;28;20057;-83
2022/05/06 01:21:52;;;;;;;7.07;4.32;;;10.90;99.90;;;10.98;77.42;101808.00;5201611;28;20141;-83
2022/05/06 01:24:24;;;;;;;9.30;4.60;;;10.90;99.90;;;10.94;77.55;101811.28;5202969;28;20084;-83
2022/05/06 01:27:04;;;;;;;8.20;3.90;;;10.80;99.90;;;10.91;77.83;101805.94;5205574;28;20052;-84
2022/05/06 01:29:38;;;;;;;8.50;4.68;;;10.80;99.90;;;10.88;78.05;101801.44;5206792;28;20668;-83
2022/05/06 01:32:11;;;;;;;7.90;4.65;;;10.80;99.90;;;10.85;78.11;101806.50;5197278;28;20054;-83
2022/05/06 01:34:45;;;;;;;8.07;4.18;;;10.80;99.90;;;10.80;78.15;101819.31;5197263;28;20061;-83
2022/05/06 01:37:20;;;;;;;7.00;4.20;;;10.70;99.90;;;10.74;77.99;101808.56;5197363;28;20494;-83
2022/05/06 01:39:54;;;;;;;;;;;10.70;99.90;;;10.72;78.40;101815.44;5196916;28;20056;-83
2022/05/06 01:42:29;;;;;;;7.80;4.65;;;10.60;99.90;;;10.70;78.68;101810.97;5186819;28;19922;-82
2022/05/06 01:45:02;;;;;;;8.55;4.70;;;10.60;99.90;;;10.67;78.81;101806.47;5196765;28;20062;-82
2022/05/06 01:47:36;;;;;;;7.05;4.10;;;10.60;99.90;;;10.67;78.93;101810.81;5197790;28;20057;-83
2022/05/06 01:50:11;;;;;;;6.75;4.20;;;10.60;99.90;;;10.64;79.13;101810.66;5196510;28;20046;-83
2022/05/06 01:52:45;;;;;;;8.52;4.63;;;10.60;99.90;;;10.60;79.18;101815.72;5196560;28;20492;-83
2022/05/06 01:55:17;;;;;;;8.15;4.88;;;10.50;99.90;;;10.52;79.34;101811.81;5196962;28;20428;-82
2022/05/06 01:57:49;;;;;;;8.82;4.70;;;10.50;99.90;;;10.54;79.47;101819.72;5197266;28;20049;-83
2022/05/06 02:00:21;;;;;;;7.88;4.60;;;10.50;99.90;;;10.51;79.65;101819.56;5196737;28;20056;-83
2022/05/06 02:02:55;;;;;;;11.65;5.07;;;10.50;99.90;;;10.46;79.60;101819.31;5196795;28;20057;-83
2022/05/06 02:05:26;;;;;;;10.50;5.65;;;10.40;99.90;;;10.37;79.87;101813.66;5197739;28;20050;-82
2022/05/06 02:07:59;;;;;;;10.02;5.10;;;10.40;99.90;;;10.39;79.93;101822.44;5198099;28;20052;-83
2022/05/06 02:10:31;;;;;;;9.32;5.30;;;10.30;99.90;;;10.35;79.82;101812.66;5195838;28;20050;-82
2022/05/06 02:13:03;;;;;;;7.35;4.78;;;10.30;99.90;;;10.35;80.22;101822.19;5196661;28;20052;-83
2022/05/06 02:15:35;;;;;;;10.73;5.22;;;10.30;99.90;;;10.32;80.05;101815.13;5198042;28;20064;-82
2022/05/06 02:18:09;;;;;;;9.95;5.63;;;10.20;99.90;;;10.28;79.93;101820.97;5197430;28;20075;-83
2022/05/06 02:20:41;;;;;;;7.78;4.57;;;10.20;99.90;;;10.26;80.19;101817.41;5198696;28;20057;-82
2022/05/06 02:23:15;;;;;;;7.28;5.05;;;10.20;99.90;;;10.23;80.33;101817.22;5198304;28;20050;-82
2022/05/06 02:25:47;;;;;;;9.52;5.25;;;10.20;99.90;;;10.19;80.28;101813.53;5199766;28;20041;-82
2022/05/06 02:28:19;;;;;;;9.55;4.97;;;10.20;99.90;;;10.18;80.62;101819.59;5198302;28;20050;-82
2022/05/06 02:33:43;;;;;;;9.15;4.70;;;10.10;99.90;;;10.17;80.40;101819.47;5199413;28;20100;-83
2022/05/06 02:36:15;;;;;;;9.75;4.95;;;10.10;99.90;;;10.17;80.74;101822.06;5200157;28;20088;-83
2022/05/06 02:38:48;;;;;;;9.50;5.25;;;10.10;99.90;;;10.19;80.78;101825.69;5200891;28;20045;-83
2022/05/06 02:41:20;;;;;;;12.10;5.68;;;10.10;99.90;;;10.18;80.53;101816.97;5201470;28;20056;-83
2022/05/06 02:43:52;;;;;;;9.65;5.75;;;10.10;99.90;;;10.19;80.20;101817.88;5202049;28;20050;-83
2022/05/06 02:46:24;;;;;;;11.23;5.38;;;10.10;99.90;;;10.20;79.67;101827.47;5203883;28;20060;-83
2022/05/06 02:48:56;;;;;;;10.18;5.10;;;10.10;99.90;;;10.14;79.53;101821.94;5206587;28;20054;-82
2022/05/06 02:51:29;;;;;;;10.30;5.15;;;10.10;99.90;;;10.11;79.42;101827.88;5195513;28;20113;-82
2022/05/06 02:54:03;;;;;;;10.68;5.35;;;10.10;99.90;;;10.05;79.64;101825.84;5194075;28;20054;-83
2022/05/06 02:56:34;;;;;;;8.80;5.53;;;10.10;99.90;;;10.01;79.76;101820.38;5194243;28;20455;-83
2022/05/06 02:59:06;;;;;;;10.55;5.03;;;10.00;99.90;;;9.96;79.87;101812.31;5193278;28;20141;-83
2022/05/06 03:01:38;;;;;;;10.80;5.40;;;10.00;99.90;;;9.93;79.95;101817.38;5194532;28;20064;-82
2022/05/06 03:04:12;;;;;;;9.93;5.03;;;9.90;99.90;;;9.89;80.04;101810.19;5195651;28;20058;-83
2022/05/06 03:06:44;;;;;;;7.07;4.88;;;9.90;99.90;;;9.87;80.39;101817.03;5194033;28;20492;-82
2022/05/06 03:09:18;;;;;;;8.75;4.50;;;9.80;99.90;;;9.84;80.08;101809.06;5195245;28;20100;-82
2022/05/06 03:11:50;;;;;;;11.73;5.57;;;9.80;99.90;;;9.84;80.41;101806.44;5195710;28;20463;-82
2022/05/06 03:14:22;;;;;;;9.38;5.65;;;9.80;99.90;;;9.81;80.55;101806.31;5195006;28;20054;-82
2022/05/06 03:16:54;;;;;;;12.00;5.68;;;9.70;99.90;;;9.79;80.83;101806.22;5193412;28;20054;-82
2022/05/06 03:19:26;;;;;;;10.23;5.18;;;9.80;99.90;;;9.82;81.00;101808.09;5193631;28;20053;-82
2022/05/06 03:21:59;;;;;;;10.63;5.72;;;9.80;99.90;;;9.85;80.87;101808.25;5195128;28;20352;-82
2022/05/06 03:24:32;;;;;;;10.02;5.32;;;9.80;99.90;;;9.87;80.42;101811.84;5195070;28;20050;-84
2022/05/06 03:27:59;;;;;;;11.25;5.60;;;9.80;99.90;;;9.87;80.03;101811.84;5197016;28;20053;-83
2022/05/06 03:29:58;;;;;;;8.00;4.97;;;9.80;99.90;;;9.86;79.87;101820.47;5193497;28;20055;-83
2022/05/06 03:32:31;;;;;;;10.25;5.53;;;9.80;99.90;;;9.82;79.58;101817.59;5188512;28;20053;-83
2022/05/06 03:35:03;;;;;;;8.38;5.10;;;9.70;99.90;;;9.75;79.71;101816.38;5198179;28;20049;-83
2022/05/06 03:37:38;;;;;;;10.07;5.25;;;9.70;99.90;;;9.67;79.52;101815.97;5195997;28;20046;-83
2022/05/06 03:40:13;;;;;;;13.43;5.85;;;9.70;99.90;;;9.62;80.05;101824.34;5198303;28;20053;-83
2022/05/06 03:42:45;;;;;;;10.43;5.53;;;9.60;99.90;;;9.60;80.39;101810.34;5196140;28;20053;-82
2022/05/06 03:45:17;;;;;;;10.10;5.47;;;9.60;99.90;;;9.58;80.33;101817.16;5197129;28;20042;-83
2022/05/06 03:47:49;;;;;;;8.57;5.13;;;9.50;99.90;;;9.56;80.72;101818.78;5198088;28;20060;-84
2022/05/06 03:53:10;;;;;;;9.00;5.53;;;9.50;99.90;;;9.53;80.75;101827.34;5198352;28;20054;-82
2022/05/06 03:55:44;;;;;;;10.65;5.32;;;9.50;99.90;;;9.47;80.71;101820.09;5202468;28;20053;-82
2022/05/06 03:58:16;;;;;;;10.38;5.78;;;9.50;99.90;;;9.44;81.22;101825.09;5205223;28;20056;-81
2022/05/06 04:00:48;;;;;;;12.05;5.78;;;9.40;99.90;;;9.43;81.27;101827.63;5206273;28;20034;-83
2022/05/06 04:03:20;;;;;;;11.57;5.20;;;9.40;99.90;;;9.43;81.58;101819.81;5207098;28;20052;-83
2022/05/06 04:05:53;;;;;;;12.27;5.40;;;9.40;99.90;;;9.43;81.74;101817.22;5208453;28;20053;-83
2022/05/06 04:08:25;;;;;;;11.02;5.60;;;9.40;99.90;;;9.46;81.51;101822.59;5201099;28;20054;-82
2022/05/06 04:10:58;;;;;;;9.88;5.30;;;9.40;99.90;;;9.46;81.29;101833.91;5199836;28;20054;-82
2022/05/06 04:13:30;;;;;;;8.00;5.10;;;9.50;99.90;;;9.46;81.38;101839.13;5198050;28;20053;-82
2022/05/06 04:16:02;;;;;;;10.77;5.20;;;9.40;99.90;;;9.43;81.17;101838.94;5192864;28;20041;-83
2022/05/06 04:18:34;;;;;;;13.75;6.22;;;9.50;99.90;;;9.43;81.44;101836.31;5269109;23;20054;-70
2022/05/06 04:23:55;;;;;;;11.70;5.13;;;9.40;99.90;;;9.41;81.71;101848.38;5167055;28;20057;-70
2022/05/06 04:26:28;;;;;;;9.35;5.15;;;9.40;99.90;;;9.41;81.73;101840.56;5167533;28;20077;-69
2022/05/06 04:29:00;;;;;;;13.02;5.60;;;9.40;99.90;;;9.40;81.92;101843.97;5167086;28;20046;-68
2022/05/06 04:31:33;;;;;;;11.00;4.85;;;9.40;99.90;;;9.38;81.91;101840.38;5161383;28;20209;-70
2022/05/06 04:34:05;;;;;;;10.10;5.22;;;9.30;99.90;;;9.38;82.12;101842.97;5167105;28;20052;-69
2022/05/06 04:36:40;;;;;;;9.57;5.28;;;9.40;99.90;;;9.43;82.38;101849.34;5167401;28;20137;-70
2022/05/06 04:39:12;;;;;;;10.65;5.70;;;9.40;99.90;;;9.51;82.41;101853.25;5166969;28;20132;-70
2022/05/06 04:41:47;;;;;;;10.50;5.35;;;9.50;99.90;;;9.64;82.34;101859.16;5166671;28;20133;-70
2022/05/06 04:44:19;;;;;;;11.50;5.47;;;9.60;99.90;;;9.77;81.70;101865.13;5167031;28;20061;-70
2022/05/06 04:46:52;;;;;;;11.23;5.60;;;9.70;99.90;;;9.89;81.03;101864.91;5167390;28;20046;-70
2022/05/06 04:49:24;;;;;;;8.63;5.10;;;9.80;99.90;;;9.97;80.52;101871.41;5167080;28;20120;-70
2022/05/06 04:51:56;;;;;;;8.68;5.30;;;9.90;99.90;;;10.03;80.04;101869.13;5166092;28;20050;-70
2022/05/06 04:54:28;;;;;;;9.45;5.63;;;9.90;99.90;;;10.06;79.84;101871.94;5163587;28;20065;-69
2022/05/06 04:57:02;;;;;;;10.32;5.63;;;10.00;99.90;;;10.07;79.79;101878.03;5153258;28;20053;-70
2022/05/06 04:59:33;;;;;;;14.45;5.90;;;10.00;99.90;;;10.11;80.04;101876.50;5160625;28;20051;-69
2022/05/06 05:02:06;;;;;;;9.00;4.72;;;10.00;99.90;;;10.12;80.19;101871.38;5152772;28;20406;-70
2022/05/06 05:04:38;;;;;;;10.80;5.68;;;10.10;99.90;;;10.17;80.03;101876.81;5160560;28;20047;-70
2022/05/06 05:07:10;;;;;;;11.20;6.10;;;10.10;99.90;;;10.22;79.76;101873.63;5162539;28;20046;-70
2022/05/06 05:09:42;;;;;;;9.70;5.75;;;10.10;99.90;;;10.32;80.12;101885.50;5151162;28;20053;-70
2022/05/06 05:12:15;;;;;;;9.05;5.47;;;10.20;99.90;;;10.53;80.46;101886.59;5156561;28;20053;-70
2022/05/06 05:14:47;;;;;;;10.65;5.80;;;10.40;99.90;;;10.82;80.89;101897.63;5148253;28;20077;-70
2022/05/06 05:17:19;;;;;;;13.88;5.68;;;10.50;99.90;;;11.19;80.12;101895.19;5163916;28;20057;-70
2022/05/06 05:19:51;;;;;;;11.07;5.93;;;10.80;99.90;;;11.56;78.69;101889.16;5165507;28;20054;-69
2022/05/06 05:22:23;;;;;;;13.82;6.53;;;11.10;99.90;;;11.88;76.56;101904.69;5166212;28;20054;-69
2022/05/06 05:24:55;;;;;;;10.50;6.07;;;11.40;99.90;;;12.28;74.32;101900.38;5152307;28;20047;-68
2022/05/06 05:27:29;;;;;;;11.98;6.60;;;11.70;99.90;;;12.60;72.28;101905.34;5145166;28;20532;-70
2022/05/06 05:30:01;;;;;;;10.85;6.00;;;12.00;99.90;;;12.98;70.10;101903.50;5145936;28;20061;-70
2022/05/06 05:32:34;;;;;;;12.57;6.13;;;12.40;99.90;;;13.36;68.19;101905.09;5146335;28;20046;-71
2022/05/06 05:35:07;;;;;;;11.93;5.80;;;12.70;99.90;;;13.64;67.39;101914.09;5147676;28;20050;-68
2022/05/06 05:37:39;;;;;;;13.95;6.32;;;13.00;99.90;;;14.02;65.41;101910.38;5149685;28;20074;-69
2022/05/06 05:40:13;;;;;;;12.05;5.78;;;13.40;99.90;;;14.28;63.58;101912.25;5153640;28;20137;-69
2022/05/06 05:42:46;;;;;;;11.52;5.95;;;13.70;99.90;;;14.59;62.94;101918.63;5149727;28;20050;-69
2022/05/06 05:48:23;;;;;;;12.00;6.20;;;14.10;99.90;;;15.10;61.15;101918.69;5155708;28;20100;-69
2022/05/06 05:50:55;;;;;;;9.95;6.13;;;14.40;99.20;;;15.34;60.48;101910.75;5150857;28;20097;-69
2022/05/06 05:53:27;;;;;;;12.65;5.70;;;14.70;98.90;;;15.56;59.72;101920.22;5152136;28;20054;-69
2022/05/06 05:55:59;;;;;;;14.02;6.30;;;14.80;98.20;;;15.73;58.87;101921.69;5149833;28;20479;-69
2022/05/06 05:58:34;;;;;;;13.70;6.95;;;15.10;97.60;;;15.98;57.63;101925.97;5147573;28;20046;-70
2022/05/06 06:01:06;;;;;;;13.13;6.43;;;15.30;96.60;;;16.24;56.86;101918.88;5145359;28;20054;-72
2022/05/06 06:03:38;;;;;;;11.73;6.40;;;15.60;96.00;;;16.45;56.41;101926.47;5149775;28;20552;-71
2022/05/06 06:06:10;;;;;;;15.50;7.55;;;15.80;95.50;;;16.59;55.80;101922.50;5160184;28;20057;-71
2022/05/06 06:08:43;;;;;;;16.00;7.68;;;16.00;94.80;;;16.61;55.18;101918.16;5159093;28;20038;-71
2022/05/06 06:11:17;;;;;;;14.23;8.25;;;16.10;94.00;;;16.74;55.14;101912.41;5144634;28;20129;-71
2022/05/06 06:13:50;;;;;;;14.80;7.80;;;16.20;93.80;;;16.85;54.73;101917.09;5144394;28;20137;-71
2022/05/06 06:16:22;;;;;;;12.70;7.47;;;16.30;93.50;;;16.65;54.78;101920.03;5156078;28;20046;-70
2022/05/06 06:18:55;;;;;;;14.50;7.88;;;16.20;93.00;;;16.46;55.78;101921.25;5163912;28;20046;-72
2022/05/06 06:21:27;;;;;;;16.27;8.60;;;16.20;93.50;;;16.60;55.71;101919.00;5165436;28;20082;-69
2022/05/06 06:23:59;;;;;;;15.32;8.88;;;16.20;93.40;;;16.89;55.10;101919.84;5165137;28;20084;-71
2022/05/06 06:26:31;;;;;;;17.85;8.32;;;16.30;93.20;;;17.27;53.96;101915.56;5165428;28;20407;-70
2022/05/06 06:29:05;;;;;;;17.40;8.95;;;16.60;92.50;;;17.59;53.00;101918.09;5165372;28;20046;-71
2022/05/06 06:31:38;;;;;;;14.43;8.57;;;16.90;91.80;;;17.71;52.82;101926.31;5162787;28;20060;-71
2022/05/06 06:34:10;;;;;;;15.88;8.43;;;17.10;91.50;;;17.83;52.48;101923.09;5161410;28;20508;-71
2022/05/06 06:36:42;;;;;;;16.60;9.35;;;17.20;90.90;;;18.16;51.73;101921.19;5164952;28;20046;-72
2022/05/06 06:39:13;;;;;;;16.50;9.23;;;17.50;90.50;;;18.32;51.05;101926.78;5164964;28;20483;-71
2022/05/06 06:41:46;;;;;;;16.45;9.10;;;17.70;89.70;;;18.53;50.46;101921.97;5164249;28;20046;-70
2022/05/06 06:44:19;;;;;;;20.63;10.73;;;17.80;88.40;;;18.71;50.23;101924.09;5164668;28;20145;-70
2022/05/06 06:46:53;;;;;;;18.23;9.90;;;18.00;87.90;;;18.78;49.66;101933.03;5164870;28;20502;-70
2022/05/06 06:49:25;;;;;;;21.42;11.27;;;18.10;86.60;;;18.93;49.29;101934.22;5165188;28;20688;-71
2022/05/06 06:51:57;;;;;;;24.45;10.38;;;18.20;85.80;;;18.98;48.90;101936.97;5163953;28;20050;-71
2022/05/06 06:54:29;;;;;;;17.48;9.35;;;18.20;84.70;;;19.18;48.63;101932.91;5164407;28;20054;-71
2022/05/06 06:57:01;;;;;;;17.80;9.02;;;18.30;84.40;;;19.31;48.41;101939.31;5164692;28;20406;-71
2022/05/06 06:59:35;;;;;;;20.02;9.63;;;18.50;83.80;;;19.51;47.94;101937.00;5164818;28;20399;-70
2022/05/06 07:02:07;;;;;;;19.13;10.55;;;18.70;82.80;;;19.69;47.69;101937.31;5164100;28;20058;-71
2022/05/06 07:04:39;;;;;;;20.02;10.57;;;18.90;82.10;;;19.86;47.82;101941.97;5164590;28;20201;-71
2022/05/06 07:12:50;;;;;;;23.30;12.05;;;19.10;81.40;;;20.28;47.15;101934.63;5164320;28;20098;-61
2022/05/06 07:15:24;;;;;;;25.65;12.02;;;19.40;80.90;;;20.52;47.00;101943.75;5164362;28;20492;-61
2022/05/06 07:17:56;;;;;;;23.27;13.85;;;19.60;80.50;;;20.73;45.70;101935.16;5164452;28;20061;-61
2022/05/06 07:20:28;;;;;;;24.75;13.20;;;19.80;78.40;;;20.92;45.89;101944.22;5164632;28;20050;-61
2022/05/06 07:23:00;;;;;;;24.25;12.90;;;20.00;78.30;;;21.09;45.12;101937.31;5158457;28;20546;-62
2022/05/06 07:25:32;;;;;;;22.48;12.27;;;20.20;77.20;;;21.14;44.57;101935.63;5164155;28;20049;-62
2022/05/06 07:28:04;;;;;;;21.40;11.50;;;20.30;76.00;;;21.13;44.30;101939.16;5168854;28;20056;-62
2022/05/06 07:30:38;;;;;;;23.67;12.40;;;20.30;74.80;;;21.30;44.52;101934.00;5163935;28;20380;-62
2022/05/06 07:33:10;;;;;;;25.73;12.80;;;20.40;75.10;;;21.45;44.38;101930.59;5164213;28;20546;-61
2022/05/06 07:35:42;;;;;;;23.33;12.48;;;20.50;74.90;;;21.38;43.85;101929.66;5164264;28;20153;-59
2022/05/06 07:38:14;;;;;;;23.08;12.40;;;20.50;73.60;;;21.24;44.15;101926.84;5163755;28;20073;-58
2022/05/06 07:40:45;;;;;;;23.98;12.98;;;20.40;73.80;;;21.56;44.34;101940.41;5164644;28;20073;-62
2022/05/06 07:43:17;;;;;;;24.63;12.93;;;20.50;74.80;;;21.88;42.99;101932.69;5163888;28;20076;-61
2022/05/06 07:45:51;;;;;;;26.88;12.82;;;20.80;73.10;;;22.16;43.07;101936.41;5164196;28;20064;-62
2022/05/06 07:48:23;;;;;;;24.17;12.75;;;21.00;72.90;;;22.37;42.16;101940.94;5164215;28;20057;-61
2022/05/06 07:50:55;;;;;;;22.02;12.93;;;21.20;71.60;;;22.55;41.48;101937.47;5163949;28;20053;-61
2022/05/06 07:53:27;;;;;;;24.17;12.25;;;21.30;70.50;;;22.69;41.20;101934.84;5164017;28;20047;-61
2022/05/06 07:56:00;;;;;;;25.05;12.73;;;21.50;70.30;;;22.90;41.63;101934.94;5168920;28;20542;-61
2022/05/06 07:58:32;;;;;;;24.05;12.95;;;21.70;70.60;;;23.16;41.33;101926.13;5184151;28;20104;-61
2022/05/06 08:01:05;;;;;;;26.85;13.50;;;21.90;70.20;;;23.49;40.49;101930.56;5164602;28;20046;-61
2022/05/06 08:06:27;;;;;;;25.45;12.77;;;22.20;69.00;;;24.06;39.29;101929.59;5181590;28;20054;-62
2022/05/06 08:08:59;;;;;;;24.58;11.75;;;22.40;68.10;;;24.34;38.08;101929.53;5170419;28;20487;-61
2022/05/06 08:11:31;;;;;;;21.85;11.45;;;22.60;66.30;;;24.55;37.49;101921.41;5175696;28;20050;-62
2022/05/06 08:14:03;;;;;;;22.42;12.05;;;22.60;65.70;;;24.78;37.61;101920.41;5184281;28;20050;-62
2022/05/06 08:16:36;;;;;;;23.75;11.73;;;22.70;65.80;;;24.97;37.31;101923.81;5184236;28;20046;-62
2022/05/06 08:19:09;;;;;;;20.70;12.10;;;22.70;65.70;;;25.48;37.02;101919.88;5172740;28;20491;-61
2022/05/06 08:21:41;;;;;;;20.65;12.00;;;22.90;66.30;;;26.22;35.85;101917.38;5168081;28;20057;-61
2022/05/06 08:24:13;;;;;;;19.48;11.00;;;23.20;65.50;;;26.85;34.23;101921.88;5184179;28;20049;-63
2022/05/06 08:26:46;;;;;;;25.00;12.95;;;23.40;64.00;;;27.46;33.61;101920.94;5184043;28;20050;-63
2022/05/06 08:29:18;;;;;;;18.40;11.63;;;23.70;64.20;;;28.31;32.51;101929.19;5183838;28;20078;-64
2022/05/06 08:31:52;;;;;;;21.42;12.98;;;24.10;63.30;;;29.15;31.50;101920.13;5176622;28;20101;-63
2022/05/06 08:34:24;;;;;;;20.52;11.68;;;24.60;62.40;;;29.91;30.50;101927.97;5165491;28;20105;-62
2022/05/06 08:36:56;;;;;;;19.30;12.35;;;25.10;61.80;;;30.59;28.93;101920.66;5169087;28;20060;-62
2022/05/06 08:39:28;;;;;;;20.83;11.90;;;25.70;59.20;;;31.03;27.85;101922.81;5163586;28;20049;-62
2022/05/06 08:42:02;;;;;;;18.08;10.32;;;26.10;57.70;;;31.80;27.06;101941.81;5166429;28;20134;-62
2022/05/06 08:53:07;;;;;;;17.98;11.43;;;28.50;53.00;;;33.77;24.46;101922.25;5184900;28;20552;-61
2022/05/06 08:55:39;;;;;;;18.38;11.02;;;28.90;52.30;;;34.01;23.96;101923.91;5167789;28;20046;-62
2022/05/06 08:58:11;;;;;;;18.38;10.73;;;;;;;34.18;24.01;101921.31;5175226;28;20057;-61
2022/05/06 09:00:43;;;;;;;17.88;10.80;;;;;;;34.31;23.66;101915.31;5169035;28;20053;-62
2022/05/06 09:03:18;;;;;;;16.60;9.05;;;29.80;49.40;;;34.36;23.75;101910.56;5182942;28;20402;-61
2022/05/06 09:05:52;;;;;;;17.20;9.95;;;29.70;50.10;;;34.23;22.61;101918.38;5167209;28;20056;-74
2022/05/06 09:08:35;;;;;;;15.13;9.65;;;29.80;48.50;;;33.83;23.15;101919.28;5167066;28;20138;-72
2022/05/06 09:11:08;;;;;;;15.98;10.05;;;29.70;48.30;;;33.33;23.10;101920.56;5153534;28;20053;-65
2022/05/06 09:13:52;;;;;;;14.65;8.60;;;29.50;47.70;;;32.64;23.78;101915.25;5155895;28;20077;-65
2022/05/06 09:16:40;;;;;;;14.45;8.77;;;29.20;48.00;;;32.30;24.51;101922.88;5164107;28;20054;-65
2022/05/06 09:19:18;;;;;;;17.80;9.98;;;29.00;48.40;;;31.71;24.80;101915.16;5166145;28;20129;-65
2022/05/06 09:22:06;;;;;;;17.33;9.15;;;28.70;48.50;;;31.15;25.82;101909.88;5165870;28;20058;-66
2022/05/06 09:24:39;;;;;;;16.83;10.07;;;28.60;48.80;;;30.66;26.38;101906.06;5162334;28;20047;-64
2022/05/06 09:27:13;;;;;;;17.33;9.02;;;28.40;48.90;;;29.85;27.13;101895.88;5165967;28;20515;-72
2022/05/06 09:29:48;;;;;;;19.05;10.57;;;28.00;49.00;;;29.17;27.85;101901.28;5165866;28;20050;-71
2022/05/06 09:32:23;;;;;;;18.83;10.27;;;27.70;49.40;;;28.75;28.84;101895.09;5163897;28;20164;-71
2022/05/06 09:34:58;;;;;;;16.70;9.63;;;27.50;50.20;;;28.37;29.32;101895.06;5164371;28;20496;-71
2022/05/06 09:37:39;;;;;;;18.80;10.50;;;27.20;50.20;;;28.08;29.47;101903.69;5185682;28;20136;-71
2022/05/06 09:40:13;;;;;;;21.30;11.38;;;26.90;50.30;;;27.79;29.86;101893.56;5165180;28;20057;-72
2022/05/06 09:42:47;;;;;;;14.13;8.57;;;26.70;50.50;;;27.59;30.61;101901.06;5165238;28;20057;-71
2022/05/06 09:45:30;;;;;;;15.73;9.20;;;26.40;51.40;;;27.39;30.66;101898.75;5165651;28;20104;-72
2022/05/06 09:48:04;;;;;;;14.90;8.40;;;26.30;51.40;;;27.20;30.27;101895.50;5161247;28;20472;-71
2022/05/06 09:50:39;;;;;;;17.33;7.47;;;26.10;50.70;;;26.98;30.70;101888.66;5165497;28;20053;-70
2022/05/06 09:53:13;;;;;;;13.50;7.53;;;26.00;51.10;;;26.82;30.50;101884.50;5164880;28;20091;-70
2022/05/06 09:55:47;;;;;;;16.33;7.88;;;25.80;50.90;;;26.55;30.04;101891.13;5164678;28;20062;-71
2022/05/06 09:58:19;;;;;;;14.65;7.03;;;25.50;50.10;;;26.54;30.54;101884.91;5158645;28;20488;-70
2022/05/06 10:00:51;;;;;;;16.95;6.43;;;25.50;50.80;;;26.54;30.54;101884.91;5163132;28;20042;-71
2022/05/06 10:03:23;;;;;;;11.05;6.20;;;25.40;50.80;;;26.58;30.29;101886.59;5175740;28;20521;-71
2022/05/06 10:05:57;;;;;;;12.30;6.10;;;25.40;50.80;;;26.50;29.67;101877.81;5186608;28;20049;-70
2022/05/06 10:08:30;;;;;;;11.75;5.53;;;25.40;49.90;;;26.41;29.18;101872.63;5171510;28;20133;-71
2022/05/06 10:11:12;;;;;;;9.35;5.25;;;25.30;49.20;;;26.53;30.11;101872.41;5164168;28;20526;-72
2022/05/06 10:13:47;;;;;;;10.65;5.43;;;25.40;50.20;;;26.77;30.05;101877.41;5157430;28;20062;-72
2022/05/06 10:16:19;;;;;;;9.27;5.15;;;25.50;50.40;;;26.87;29.56;101871.94;5165637;28;20602;-71
2022/05/06 10:18:53;;;;;;;12.95;6.47;;;25.60;50.10;;;26.88;29.61;101876.38;5195418;23;20572;-78
2022/05/06 10:21:50;;;;;;;11.35;5.68;;;25.70;50.00;;;26.69;29.28;101868.63;5182801;28;20085;-77
2022/05/06 10:24:21;;;;;;;11.38;5.93;;;25.70;49.50;;;26.54;28.14;101863.50;5202371;28;20049;-78
2022/05/06 10:26:53;;;;;;;11.18;5.60;;;25.60;47.70;;;26.50;28.65;101865.34;5210112;28;20056;-79
2022/05/06 10:32:58;;;;;;;11.13;4.90;;;25.50;48.80;;;26.69;28.94;101860.59;5208852;28;20084;-79
2022/05/06 10:35:42;;;;;;;14.30;5.55;;;25.50;48.90;;;26.58;29.42;101857.19;5209766;28;20069;-77
2022/05/06 10:38:24;;;;;;;15.27;6.53;;;25.50;49.50;;;26.24;30.98;101857.63;5196336;28;20100;-78
2022/05/06 10:40:58;;;;;;;10.48;5.85;;;25.30;51.10;;;25.96;31.15;101853.56;5205446;28;20049;-77
2022/05/06 10:43:57;;;;;;;13.18;6.70;;;25.10;50.90;;;26.02;31.18;101845.47;5202073;28;20072;-78
2022/05/06 10:46:39;;;;;;;13.30;6.18;;;25.10;51.10;;;26.09;30.09;101844.50;5211462;28;20045;-77
2022/05/06 10:49:50;;;;;;;11.30;5.82;;;25.10;50.20;;;26.13;30.31;101840.84;5208706;28;20488;-78
2022/05/06 10:52:45;;;;;;;11.63;5.13;;;25.00;50.40;;;26.03;30.17;101847.25;5206976;28;20089;-77
2022/05/06 10:55:24;;;;;;;6.35;3.20;;;25.00;50.00;;;25.92;29.83;101838.47;5187796;28;20077;-79
2022/05/06 10:58:06;;;;;;;9.73;4.32;;;24.90;49.70;;;26.01;30.04;101841.00;5196689;28;20060;-79
2022/05/06 11:00:40;;;;;;;9.43;3.88;;;24.90;50.00;;;26.10;29.23;101829.34;5192591;28;20042;-78
2022/05/06 11:03:17;;;;;;;9.13;4.53;;;25.00;49.20;;;25.90;29.15;101832.25;5191563;28;20056;-78
2022/05/06 11:05:52;;;;;;;9.43;4.15;;;24.90;48.50;;;25.49;30.01;101830.91;5188711;28;20049;-77
2022/05/06 11:08:33;;;;;;;6.03;2.78;;;24.70;49.50;;;25.16;30.47;101838.34;5189660;28;20109;-76